DW4252 Weather Reports


Display with metric or nautical units.
time (UTC)temp
F
wind
direction
speed
MPH
gust
MPH
rain 1hr
in
rain 24hr
in
rain mn
in
humidity
%
barometer
mb
20181216231508 44 229 4.0 7.0 0.00 0.27 0.27 98 1008.1
20181216230009 45 233 5.0 5.0 0.00 0.27 0.27 99 1008.3
20181216224507 45 234 5.0 10.0 0.00 0.27 0.27 99 1008.0
20181216223009 46 233 5.0 8.0 0.00 0.27 0.27 95 1007.6
20181216221508 46 232 6.0 8.0 0.04 0.27 0.27 95 1007.4
20181216220009 46 230 6.0 8.0 0.05 0.27 0.27 95 1007.1
20181216214508 46 242 5.0 6.0 0.05 0.27 0.27 95 1006.6
20181216213009 46 253 3.0 4.0 0.05 0.27 0.27 96 1006.4
20181216211509 47 247 5.0 8.0 0.01 0.24 0.24 96 1006.5
20181216210009 46 219 3.0 4.0 0.00 0.22 0.22 95 1006.0
20181216204508 46 219 4.0 6.0 0.00 0.22 0.22 95 1005.8
20181216203008 46 206 4.0 8.0 0.00 0.22 0.22 95 1005.8
20181216201508 47 198 6.0 8.0 0.01 0.22 0.22 95 1005.6
20181216200009 47 190 9.0 13.0 0.04 0.22 0.22 96 1005.4
20181216194509 47 187 9.0 11.0 0.05 0.24 0.22 96 1005.6
20181216193009 46 184 9.0 11.0 0.06 0.24 0.22 95 1005.5
20181216191509 46 181 8.0 12.0 0.07 0.22 0.21 94 1005.3
20181216190009 46 185 7.0 12.0 0.11 0.20 0.19 94 1005.5
20181216184508 46 198 9.0 15.0 0.13 0.19 0.18 94 1005.9
20181216183009 46 203 4.0 7.0 0.17 0.21 0.17 92 1005.8
20181216181508 46 187 8.0 13.0 0.13 0.19 0.13 90 1005.9
20181216180008 47 188 7.0 11.0 0.06 0.15 0.06 89 1005.7
20181216174510 48 187 15.0 21.0 0.05 0.19 0.05 89 1005.8
20181216173009 49 181 13.0 19.0 0.00 0.17 0.00 92 1005.5
20181216171508 48 173 10.0 13.0 0.00 0.17 0.00 94 1005.5
20181216170009 48 172 6.0 8.0 0.00 0.19 0.00 93 1005.3
20181216164508 48 167 7.0 13.0 0.00 0.20 0.00 93 1005.4
20181216163008 48 169 5.0 8.0 0.00 0.24 0.00 92 1005.6
20181216161508 48 171 6.0 10.0 0.00 0.25 0.00 91 1005.7
20181216160009 48 176 8.0 11.0 0.00 0.26 0.00 91 1005.8
20181216154508 48 171 7.0 11.0 0.00 0.27 0.00 90 1006.0
20181216153008 48 182 9.0 12.0 0.00 0.28 0.00 89 1006.2
20181216151509 49 183 9.0 11.0 0.00 0.31 0.00 89 1006.0
20181216150009 49 181 9.0 11.0 0.00 0.33 0.00 88 1006.1
20181216144508 49 183 8.0 11.0 0.00 0.34 0.00 88 1006.2
20181216143009 49 178 7.0 11.0 0.00 0.35 0.00 88 1006.3
20181216141510 48 172 6.0 8.0 0.00 0.35 0.00 86 1006.2
20181216140009 48 166 3.0 4.0 0.00 0.37 0.00 83 1006.3
20181216134508 48 176 3.0 4.0 0.00 0.38 0.00 80 1006.4
20181216133009 49 189 4.0 5.0 0.00 0.38 0.00 79 1006.7
20181216131509 49 196 4.0 6.0 0.00 0.38 0.00 80 1006.7
20181216130009 49 197 3.0 5.0 0.00 0.38 0.00 81 1006.8
20181216124509 49 194 2.0 4.0 0.00 0.39 0.00 84 1006.9
20181216123009 49 181 3.0 4.0 0.00 0.39 0.00 86 1007.0
20181216121509 49 171 4.0 8.0 0.00 0.39 0.00 89 1007.2
20181216120009 49 167 4.0 7.0 0.00 0.39 0.00 93 1007.4
20181216114509 48 173 3.0 8.0 0.00 0.39 0.00 95 1007.6
20181216113009 48 182 4.0 5.0 0.00 0.39 0.00 97 1007.7
20181216111509 47 178 2.0 4.0 0.00 0.39 0.00 99 1007.6
20181216110009 46 121 2.0 4.0 0.00 0.39 0.00 98 1007.7
20181216104509 43 83 1.0 2.0 0.00 0.39 0.00 100 1007.7
20181216103009 42 93 1.0 2.0 0.00 0.40 0.00 99 1007.9
20181216101509 41 106 1.0 2.0 0.00 0.40 0.00 99 1008.2
20181216100010 41 147 1.0 2.0 0.00 0.40 0.00 98 1008.1
20181216094509 40 181 0.0 1.0 0.00 0.40 0.00 97 1008.2
20181216093010 39 181 1.0 2.0 0.00 0.40 0.00 96 1007.9
20181216090010 40 181 1.0 2.0 0.00 0.40 0.00 97 1007.4
20181216084509 40 181 3.0 4.0 0.00 0.40 0.00 96 1007.2
20181216083010 40 179 2.0 3.0 0.00 0.40 0.00 95 1007.4
20181216081509 39 174 2.0 2.0 0.00 0.40 0.00 95 1007.3
20181216080010 39 166 2.0 4.0 0.00 0.40 0.00 94 1007.1
20181216074510 40 165 2.0 3.0 0.00 0.40 0.00 94 1007.2
20181216073010 41 207 1.0 2.0 0.00 0.40 0.00 94 1006.8
20181216071509 42 221 1.0 3.0 0.00 0.40 0.00 95 1006.9
20181216070026 42 222 3.0 4.0 0.00 0.40 0.00 95 1006.7
20181216064509 42 229 3.0 4.0 0.00 0.40 0.00 95 1006.4
20181216063018 42 227 2.0 4.0 0.00 0.40 0.00 95 1006.6
20181216061510 43 229 4.0 4.0 0.00 0.40 0.00 95 1006.4
20181216060010 43 227 5.0 8.0 0.00 0.40 0.00 96 1006.5
20181216054509 43 225 4.0 5.0 0.00 0.40 0.00 96 1006.5
20181216053010 43 221 3.0 5.0 0.00 0.40 0.00 96 1006.5
20181216051509 42 225 3.0 4.0 0.00 0.40 0.00 96 1006.1
20181216050010 42 230 3.0 4.0 0.00 0.40 0.00 95 1006.4
20181216044510 42 226 2.0 2.0 0.00 0.40 0.00 95 1006.3
20181216043010 42 220 2.0 2.0 0.00 0.40 0.00 95 1006.3
20181216041509 43 218 2.0 3.0 0.00 0.40 0.00 95 1006.2
20181216040010 43 222 2.0 4.0 0.00 0.40 0.00 94 1006.1
20181216034510 43 225 3.0 4.0 0.00 0.40 0.00 94 1006.2
20181216033010 43 225 3.0 4.0 0.00 0.40 0.00 94 1005.9
20181216031510 43 225 3.0 4.0 0.00 0.40 0.00 94 1005.8
20181216030010 44 224 3.0 4.0 0.00 0.40 0.00 93 1005.7
20181216024510 44 220 3.0 4.0 0.00 0.40 0.00 92 1006.0
20181216023010 44 225 3.0 4.0 0.00 0.40 0.00 92 1006.0
20181216021510 44 227 5.0 8.0 0.00 0.40 0.00 92 1005.8
20181216020010 44 228 6.0 8.0 0.00 0.40 0.00 92 1005.7
20181216014510 44 224 4.0 6.0 0.00 0.40 0.00 91 1005.6
20181216013011 44 227 3.0 4.0 0.00 0.40 0.00 90 1005.6
20181216011509 45 229 4.0 5.0 0.00 0.40 0.00 90 1005.4
20181216005959 45 230 6.0 9.0 0.00 0.40 0.00 90 1005.4
20181216004459 45 229 6.0 8.0 0.00 0.40 0.00 90 1005.3
20181216002959 45 225 6.0 9.0 0.00 0.40 0.00 90 1005.1
20181216001459 45 227 4.0 5.0 0.00 0.40 0.00 90 1005.0
20181216000014 46 232 8.0 11.0 0.00 0.40 0.00 85 1004.9
20181215234458 46 232 7.0 10.0 0.00 0.40 0.40 86 1004.9
20181215232958 45 227 6.0 8.0 0.00 0.40 0.40 93 1004.5